sensor_id;sensor_type;location;lat;lon;timestamp;temperature;humidity
34698;DHT22;61391;50.922;6.928;2023-09-07T00:02:13;21.50;99.90
34698;DHT22;61391;50.922;6.928;2023-09-07T00:07:44;21.30;99.90
34698;DHT22;61391;50.922;6.928;2023-09-07T00:10:09;21.50;99.90
34698;DHT22;61391;50.922;6.928;2023-09-07T00:12:35;21.50;99.90
34698;DHT22;61391;50.922;6.928;2023-09-07T00:15:05;21.50;99.90
34698;DHT22;61391;50.922;6.928;2023-09-07T00:17:35;21.70;99.90
34698;DHT22;61391;50.922;6.928;2023-09-07T00:20:00;21.90;99.90
34698;DHT22;61391;50.922;6.928;2023-09-07T00:22:26;21.90;99.90
34698;DHT22;61391;50.922;6.928;2023-09-07T00:24:52;21.60;99.90
34698;DHT22;61391;50.922;6.928;2023-09-07T00:27:20;21.50;99.90
34698;DHT22;61391;50.922;6.928;2023-09-07T00:29:45;21.50;99.90
34698;DHT22;61391;50.922;6.928;2023-09-07T00:32:11;21.50;99.90
34698;DHT22;61391;50.922;6.928;2023-09-07T00:34:38;21.60;99.90
34698;DHT22;61391;50.922;6.928;2023-09-07T00:37:03;21.50;99.90
34698;DHT22;61391;50.922;6.928;2023-09-07T00:39:29;21.40;99.90
34698;DHT22;61391;50.922;6.928;2023-09-07T00:41:55;21.40;99.90
34698;DHT22;61391;50.922;6.928;2023-09-07T00:47:24;21.20;99.90
34698;DHT22;61391;50.922;6.928;2023-09-07T00:49:51;21.30;99.90
34698;DHT22;61391;50.922;6.928;2023-09-07T00:52:18;21.40;99.90
34698;DHT22;61391;50.922;6.928;2023-09-07T00:54:45;21.40;99.90
34698;DHT22;61391;50.922;6.928;2023-09-07T00:57:12;21.40;99.90
34698;DHT22;61391;50.922;6.928;2023-09-07T00:59:38;21.20;99.90
34698;DHT22;61391;50.922;6.928;2023-09-07T01:02:03;21.20;99.90
34698;DHT22;61391;50.922;6.928;2023-09-07T01:04:32;21.10;99.90
34698;DHT22;61391;50.922;6.928;2023-09-07T01:07:02;21.10;99.90
34698;DHT22;61391;50.922;6.928;2023-09-07T01:09:30;21.00;99.90
34698;DHT22;61391;50.922;6.928;2023-09-07T01:11:57;20.70;99.90
34698;DHT22;61391;50.922;6.928;2023-09-07T01:14:22;20.70;99.90
34698;DHT22;61391;50.922;6.928;2023-09-07T01:16:48;20.50;99.90
34698;DHT22;61391;50.922;6.928;2023-09-07T01:19:13;20.30;99.90
34698;DHT22;61391;50.922;6.928;2023-09-07T01:24:42;20.10;99.90
34698;DHT22;61391;50.922;6.928;2023-09-07T01:27:09;20.20;99.90
34698;DHT22;61391;50.922;6.928;2023-09-07T01:29:38;19.90;99.90
34698;DHT22;61391;50.922;6.928;2023-09-07T01:32:05;19.80;99.90
34698;DHT22;61391;50.922;6.928;2023-09-07T01:34:31;19.80;99.90
34698;DHT22;61391;50.922;6.928;2023-09-07T01:36:58;19.90;99.90
34698;DHT22;61391;50.922;6.928;2023-09-07T01:39:23;19.90;99.90
34698;DHT22;61391;50.922;6.928;2023-09-07T01:41:49;20.00;99.90
34698;DHT22;61391;50.922;6.928;2023-09-07T01:44:19;20.30;99.90
34698;DHT22;61391;50.922;6.928;2023-09-07T01:46:44;20.40;99.90
34698;DHT22;61391;50.922;6.928;2023-09-07T01:49:10;20.20;99.90
34698;DHT22;61391;50.922;6.928;2023-09-07T01:51:35;20.20;99.90
34698;DHT22;61391;50.922;6.928;2023-09-07T01:54:02;20.20;99.90
34698;DHT22;61391;50.922;6.928;2023-09-07T01:56:32;19.70;99.90
34698;DHT22;61391;50.922;6.928;2023-09-07T01:58:57;19.60;99.90
34698;DHT22;61391;50.922;6.928;2023-09-07T02:01:25;19.70;99.90
34698;DHT22;61391;50.922;6.928;2023-09-07T02:03:51;19.90;99.90
34698;DHT22;61391;50.922;6.928;2023-09-07T02:06:16;20.10;99.90
34698;DHT22;61391;50.922;6.928;2023-09-07T02:08:42;20.10;99.90
34698;DHT22;61391;50.922;6.928;2023-09-07T02:11:08;19.90;99.90
34698;DHT22;61391;50.922;6.928;2023-09-07T02:13:34;19.80;99.90
34698;DHT22;61391;50.922;6.928;2023-09-07T02:19:03;19.40;99.90
34698;DHT22;61391;50.922;6.928;2023-09-07T02:21:29;19.30;99.90
34698;DHT22;61391;50.922;6.928;2023-09-07T02:23:54;19.20;99.90
34698;DHT22;61391;50.922;6.928;2023-09-07T02:26:20;19.10;99.90
34698;DHT22;61391;50.922;6.928;2023-09-07T02:28:45;19.10;99.90
34698;DHT22;61391;50.922;6.928;2023-09-07T02:31:11;19.30;99.90
34698;DHT22;61391;50.922;6.928;2023-09-07T02:33:36;19.30;99.90
34698;DHT22;61391;50.922;6.928;2023-09-07T02:36:02;19.20;99.90
34698;DHT22;61391;50.922;6.928;2023-09-07T02:38:28;19.00;99.90
34698;DHT22;61391;50.922;6.928;2023-09-07T02:40:59;19.10;99.90
34698;DHT22;61391;50.922;6.928;2023-09-07T02:43:25;19.10;99.90
34698;DHT22;61391;50.922;6.928;2023-09-07T02:45:50;19.20;99.90
34698;DHT22;61391;50.922;6.928;2023-09-07T02:48:16;19.40;99.90
34698;DHT22;61391;50.922;6.928;2023-09-07T02:50:41;19.50;99.90
34698;DHT22;61391;50.922;6.928;2023-09-07T02:53:07;19.60;99.90
34698;DHT22;61391;50.922;6.928;2023-09-07T02:55:33;19.50;99.90
34698;DHT22;61391;50.922;6.928;2023-09-07T02:58:02;19.40;99.90
34698;DHT22;61391;50.922;6.928;2023-09-07T03:00:28;19.40;99.90
34698;DHT22;61391;50.922;6.928;2023-09-07T03:02:53;19.50;99.90
34698;DHT22;61391;50.922;6.928;2023-09-07T03:05:19;19.50;99.90
34698;DHT22;61391;50.922;6.928;2023-09-07T03:07:45;19.50;99.90
34698;DHT22;61391;50.922;6.928;2023-09-07T03:10:10;19.60;99.90
34698;DHT22;61391;50.922;6.928;2023-09-07T03:12:36;19.60;99.90
34698;DHT22;61391;50.922;6.928;2023-09-07T03:15:01;19.30;99.90
34698;DHT22;61391;50.922;6.928;2023-09-07T03:20:34;19.20;99.90
34698;DHT22;61391;50.922;6.928;2023-09-07T03:23:00;19.10;99.90
34698;DHT22;61391;50.922;6.928;2023-09-07T03:25:27;18.90;99.90
34698;DHT22;61391;50.922;6.928;2023-09-07T03:27:52;19.20;99.90
34698;DHT22;61391;50.922;6.928;2023-09-07T03:30:17;19.10;99.90
34698;DHT22;61391;50.922;6.928;2023-09-07T03:38:49;19.30;99.90
34698;DHT22;61391;50.922;6.928;2023-09-07T03:41:15;19.40;99.90
34698;DHT22;61391;50.922;6.928;2023-09-07T03:43:40;19.40;99.90
34698;DHT22;61391;50.922;6.928;2023-09-07T03:46:06;19.40;99.90
34698;DHT22;61391;50.922;6.928;2023-09-07T03:48:31;19.20;99.90
34698;DHT22;61391;50.922;6.928;2023-09-07T03:51:07;19.30;99.90
34698;DHT22;61391;50.922;6.928;2023-09-07T03:53:32;19.30;99.90
34698;DHT22;61391;50.922;6.928;2023-09-07T03:55:58;19.30;99.90
34698;DHT22;61391;50.922;6.928;2023-09-07T03:58:23;19.30;99.90
34698;DHT22;61391;50.922;6.928;2023-09-07T04:00:49;19.20;99.90
34698;DHT22;61391;50.922;6.928;2023-09-07T04:03:15;19.00;99.90
34698;DHT22;61391;50.922;6.928;2023-09-07T04:05:40;19.00;99.90
34698;DHT22;61391;50.922;6.928;2023-09-07T04:08:06;19.00;99.90
34698;DHT22;61391;50.922;6.928;2023-09-07T04:10:31;18.90;99.90
34698;DHT22;61391;50.922;6.928;2023-09-07T04:12:57;18.90;99.90
34698;DHT22;61391;50.922;6.928;2023-09-07T04:15:22;18.90;99.90
34698;DHT22;61391;50.922;6.928;2023-09-07T04:17:49;18.80;99.90
34698;DHT22;61391;50.922;6.928;2023-09-07T04:20:15;18.90;99.90
34698;DHT22;61391;50.922;6.928;2023-09-07T04:22:40;18.80;99.90
34698;DHT22;61391;50.922;6.928;2023-09-07T04:25:06;18.70;99.90
34698;DHT22;61391;50.922;6.928;2023-09-07T04:27:32;18.70;99.90
34698;DHT22;61391;50.922;6.928;2023-09-07T04:29:57;18.50;99.90
34698;DHT22;61391;50.922;6.928;2023-09-07T04:32:22;18.60;99.90
34698;DHT22;61391;50.922;6.928;2023-09-07T04:34:52;18.50;99.90
34698;DHT22;61391;50.922;6.928;2023-09-07T04:37:18;18.50;99.90
34698;DHT22;61391;50.922;6.928;2023-09-07T04:39:43;18.70;99.90
34698;DHT22;61391;50.922;6.928;2023-09-07T04:42:09;18.60;99.90
34698;DHT22;61391;50.922;6.928;2023-09-07T04:44:34;18.50;99.90
34698;DHT22;61391;50.922;6.928;2023-09-07T04:50:04;18.50;99.90
34698;DHT22;61391;50.922;6.928;2023-09-07T04:52:31;18.60;99.90
34698;DHT22;61391;50.922;6.928;2023-09-07T04:54:57;18.50;99.90
34698;DHT22;61391;50.922;6.928;2023-09-07T04:57:22;18.40;99.90
34698;DHT22;61391;50.922;6.928;2023-09-07T05:02:51;18.00;99.90
34698;DHT22;61391;50.922;6.928;2023-09-07T05:08:19;18.10;99.90
34698;DHT22;61391;50.922;6.928;2023-09-07T05:10:46;18.30;99.90
34698;DHT22;61391;50.922;6.928;2023-09-07T05:13:12;18.30;99.90
34698;DHT22;61391;50.922;6.928;2023-09-07T05:24:47;18.20;99.90
34698;DHT22;61391;50.922;6.928;2023-09-07T05:30:04;18.50;99.90
34698;DHT22;61391;50.922;6.928;2023-09-07T05:32:30;18.40;99.90
34698;DHT22;61391;50.922;6.928;2023-09-07T05:34:59;18.30;99.90
34698;DHT22;61391;50.922;6.928;2023-09-07T05:37:25;18.50;99.90
34698;DHT22;61391;50.922;6.928;2023-09-07T05:39:50;18.70;99.90
34698;DHT22;61391;50.922;6.928;2023-09-07T05:42:16;18.80;99.90
34698;DHT22;61391;50.922;6.928;2023-09-07T05:44:41;18.80;99.90
34698;DHT22;61391;50.922;6.928;2023-09-07T05:47:08;18.80;99.90
34698;DHT22;61391;50.922;6.928;2023-09-07T05:49:34;19.10;99.90
34698;DHT22;61391;50.922;6.928;2023-09-07T05:51:59;19.30;99.90
34698;DHT22;61391;50.922;6.928;2023-09-07T05:54:25;19.10;99.90
34698;DHT22;61391;50.922;6.928;2023-09-07T05:56:50;18.90;99.90
34698;DHT22;61391;50.922;6.928;2023-09-07T05:59:16;19.10;99.90
34698;DHT22;61391;50.922;6.928;2023-09-07T06:01:44;19.20;99.90
34698;DHT22;61391;50.922;6.928;2023-09-07T06:04:10;19.10;99.90
34698;DHT22;61391;50.922;6.928;2023-09-07T06:06:35;19.10;99.90
34698;DHT22;61391;50.922;6.928;2023-09-07T06:09:01;19.20;99.90
34698;DHT22;61391;50.922;6.928;2023-09-07T06:11:26;19.20;99.90
34698;DHT22;61391;50.922;6.928;2023-09-07T06:13:52;19.30;99.90
34698;DHT22;61391;50.922;6.928;2023-09-07T06:16:17;18.90;99.90
34698;DHT22;61391;50.922;6.928;2023-09-07T06:18:44;19.10;99.90
34698;DHT22;61391;50.922;6.928;2023-09-07T06:21:11;19.20;99.90
34698;DHT22;61391;50.922;6.928;2023-09-07T06:23:36;19.00;99.90
34698;DHT22;61391;50.922;6.928;2023-09-07T06:26:02;18.90;99.90
34698;DHT22;61391;50.922;6.928;2023-09-07T06:28:28;18.80;99.90
34698;DHT22;61391;50.922;6.928;2023-09-07T06:30:53;18.90;99.90
34698;DHT22;61391;50.922;6.928;2023-09-07T06:33:19;18.90;99.90
34698;DHT22;61391;50.922;6.928;2023-09-07T06:35:45;19.20;99.90
34698;DHT22;61391;50.922;6.928;2023-09-07T06:38:11;19.20;99.90
34698;DHT22;61391;50.922;6.928;2023-09-07T06:40:36;19.60;99.90
34698;DHT22;61391;50.922;6.928;2023-09-07T06:43:01;20.10;99.90
34698;DHT22;61391;50.922;6.928;2023-09-07T06:45:39;20.60;99.90
34698;DHT22;61391;50.922;6.928;2023-09-07T06:48:05;20.90;99.90
34698;DHT22;61391;50.922;6.928;2023-09-07T06:50:31;21.10;99.90
34698;DHT22;61391;50.922;6.928;2023-09-07T06:52:57;21.10;99.90
34698;DHT22;61391;50.922;6.928;2023-09-07T06:55:22;21.10;99.90
34698;DHT22;61391;50.922;6.928;2023-09-07T06:57:48;21.20;99.90
34698;DHT22;61391;50.922;6.928;2023-09-07T07:00:14;21.60;99.90
34698;DHT22;61391;50.922;6.928;2023-09-07T07:02:40;22.20;99.90
34698;DHT22;61391;50.922;6.928;2023-09-07T07:05:05;23.00;99.90
34698;DHT22;61391;50.922;6.928;2023-09-07T07:07:31;23.00;99.90
34698;DHT22;61391;50.922;6.928;2023-09-07T07:09:57;23.40;99.90
34698;DHT22;61391;50.922;6.928;2023-09-07T07:12:23;23.10;99.90
34698;DHT22;61391;50.922;6.928;2023-09-07T07:14:48;23.50;99.90
34698;DHT22;61391;50.922;6.928;2023-09-07T07:17:14;24.70;99.90
34698;DHT22;61391;50.922;6.928;2023-09-07T07:22:44;27.40;99.90
34698;DHT22;61391;50.922;6.928;2023-09-07T07:25:10;26.50;99.90
34698;DHT22;61391;50.922;6.928;2023-09-07T07:27:36;27.20;99.90
34698;DHT22;61391;50.922;6.928;2023-09-07T07:30:02;28.30;99.90
34698;DHT22;61391;50.922;6.928;2023-09-07T07:32:28;28.90;99.90
34698;DHT22;61391;50.922;6.928;2023-09-07T07:34:53;29.40;99.90
34698;DHT22;61391;50.922;6.928;2023-09-07T07:37:19;30.80;99.90
34698;DHT22;61391;50.922;6.928;2023-09-07T07:39:44;30.40;99.90
34698;DHT22;61391;50.922;6.928;2023-09-07T07:42:10;31.50;99.20
34698;DHT22;61391;50.922;6.928;2023-09-07T07:44:35;29.90;99.90
34698;DHT22;61391;50.922;6.928;2023-09-07T07:47:00;31.10;98.50
34698;DHT22;61391;50.922;6.928;2023-09-07T07:49:26;31.60;97.30
34698;DHT22;61391;50.922;6.928;2023-09-07T07:51:53;32.70;95.10
34698;DHT22;61391;50.922;6.928;2023-09-07T07:54:20;33.30;93.10
34698;DHT22;61391;50.922;6.928;2023-09-07T07:56:48;29.40;96.80
34698;DHT22;61391;50.922;6.928;2023-09-07T07:59:13;30.20;97.60
34698;DHT22;61391;50.922;6.928;2023-09-07T08:01:39;31.00;95.60
34698;DHT22;61391;50.922;6.928;2023-09-07T08:04:05;30.30;96.90
34698;DHT22;61391;50.922;6.928;2023-09-07T08:06:31;29.40;98.40
34698;DHT22;61391;50.922;6.928;2023-09-07T08:08:56;28.20;99.90
34698;DHT22;61391;50.922;6.928;2023-09-07T08:11:22;28.20;99.90
34698;DHT22;61391;50.922;6.928;2023-09-07T08:13:47;28.90;99.90
34698;DHT22;61391;50.922;6.928;2023-09-07T08:16:13;31.30;97.40
34698;DHT22;61391;50.922;6.928;2023-09-07T08:18:38;29.90;98.30
34698;DHT22;61391;50.922;6.928;2023-09-07T08:21:05;29.70;98.10
34698;DHT22;61391;50.922;6.928;2023-09-07T08:23:30;29.00;99.40
34698;DHT22;61391;50.922;6.928;2023-09-07T08:25:56;29.30;99.90
34698;DHT22;61391;50.922;6.928;2023-09-07T08:28:21;30.20;99.10
34698;DHT22;61391;50.922;6.928;2023-09-07T08:30:50;30.60;97.90
34698;DHT22;61391;50.922;6.928;2023-09-07T08:33:22;30.40;97.70
34698;DHT22;61391;50.922;6.928;2023-09-07T08:35:55;29.90;98.20
34698;DHT22;61391;50.922;6.928;2023-09-07T08:38:21;30.70;97.20
34698;DHT22;61391;50.922;6.928;2023-09-07T08:40:50;30.10;98.30
34698;DHT22;61391;50.922;6.928;2023-09-07T08:43:16;30.00;98.50
34698;DHT22;61391;50.922;6.928;2023-09-07T08:45:51;31.50;96.90
34698;DHT22;61391;50.922;6.928;2023-09-07T08:48:20;32.90;94.80
34698;DHT22;61391;50.922;6.928;2023-09-07T08:50:45;33.40;93.10
34698;DHT22;61391;50.922;6.928;2023-09-07T08:53:18;33.10;92.50
34698;DHT22;61391;50.922;6.928;2023-09-07T08:55:45;33.70;92.80
34698;DHT22;61391;50.922;6.928;2023-09-07T08:58:10;33.80;92.20
34698;DHT22;61391;50.922;6.928;2023-09-07T09:00:36;34.30;91.10
34698;DHT22;61391;50.922;6.928;2023-09-07T09:03:02;34.30;90.70
34698;DHT22;61391;50.922;6.928;2023-09-07T09:05:28;33.20;90.70
34698;DHT22;61391;50.922;6.928;2023-09-07T09:08:04;33.10;91.60
34698;DHT22;61391;50.922;6.928;2023-09-07T09:10:30;33.40;91.20
34698;DHT22;61391;50.922;6.928;2023-09-07T09:12:56;33.70;91.20
34698;DHT22;61391;50.922;6.928;2023-09-07T09:15:22;31.90;91.50
34698;DHT22;61391;50.922;6.928;2023-09-07T09:17:47;31.60;92.90
34698;DHT22;61391;50.922;6.928;2023-09-07T09:20:23;31.30;93.30
34698;DHT22;61391;50.922;6.928;2023-09-07T09:22:50;31.40;93.60
34698;DHT22;61391;50.922;6.928;2023-09-07T09:25:15;33.40;91.70
34698;DHT22;61391;50.922;6.928;2023-09-07T09:27:41;34.30;90.40
34698;DHT22;61391;50.922;6.928;2023-09-07T09:30:07;33.10;91.10
34698;DHT22;61391;50.922;6.928;2023-09-07T09:32:32;33.80;90.50
34698;DHT22;61391;50.922;6.928;2023-09-07T09:34:58;34.00;90.70
34698;DHT22;61391;50.922;6.928;2023-09-07T09:37:25;34.40;90.40
34698;DHT22;61391;50.922;6.928;2023-09-07T09:39:51;35.70;88.10
34698;DHT22;61391;50.922;6.928;2023-09-07T09:42:18;35.50;87.00
34698;DHT22;61391;50.922;6.928;2023-09-07T09:44:43;36.20;84.90
34698;DHT22;61391;50.922;6.928;2023-09-07T09:47:10;36.70;83.10
34698;DHT22;61391;50.922;6.928;2023-09-07T09:49:35;36.60;82.80
34698;DHT22;61391;50.922;6.928;2023-09-07T09:52:01;37.70;80.80
34698;DHT22;61391;50.922;6.928;2023-09-07T09:54:27;37.90;78.90
34698;DHT22;61391;50.922;6.928;2023-09-07T09:56:53;37.60;78.90
34698;DHT22;61391;50.922;6.928;2023-09-07T09:59:19;38.40;77.50
34698;DHT22;61391;50.922;6.928;2023-09-07T10:01:45;38.20;76.70
34698;DHT22;61391;50.922;6.928;2023-09-07T10:04:15;38.40;76.70
34698;DHT22;61391;50.922;6.928;2023-09-07T10:09:40;34.70;80.30
34698;DHT22;61391;50.922;6.928;2023-09-07T10:12:11;34.40;84.30
34698;DHT22;61391;50.922;6.928;2023-09-07T10:14:40;34.90;81.80
34698;DHT22;61391;50.922;6.928;2023-09-07T10:17:06;36.50;80.90
34698;DHT22;61391;50.922;6.928;2023-09-07T10:19:31;37.40;78.90
34698;DHT22;61391;50.922;6.928;2023-09-07T10:21:57;37.20;78.20
34698;DHT22;61391;50.922;6.928;2023-09-07T10:24:23;37.10;77.40
34698;DHT22;61391;50.922;6.928;2023-09-07T10:27:10;36.20;79.70
34698;DHT22;61391;50.922;6.928;2023-09-07T10:29:46;36.40;79.80
34698;DHT22;61391;50.922;6.928;2023-09-07T10:32:15;37.60;77.90
34698;DHT22;61391;50.922;6.928;2023-09-07T10:34:41;36.10;79.20
34698;DHT22;61391;50.922;6.928;2023-09-07T10:37:09;36.90;78.30
34698;DHT22;61391;50.922;6.928;2023-09-07T10:39:37;36.10;78.80
34698;DHT22;61391;50.922;6.928;2023-09-07T10:42:04;36.90;78.80
34698;DHT22;61391;50.922;6.928;2023-09-07T10:44:29;34.70;81.10
34698;DHT22;61391;50.922;6.928;2023-09-07T10:46:56;35.10;81.40
34698;DHT22;61391;50.922;6.928;2023-09-07T10:49:21;35.80;80.70
34698;DHT22;61391;50.922;6.928;2023-09-07T10:51:47;36.80;80.00
34698;DHT22;61391;50.922;6.928;2023-09-07T10:54:23;38.30;77.70
34698;DHT22;61391;50.922;6.928;2023-09-07T10:56:49;37.80;76.10
34698;DHT22;61391;50.922;6.928;2023-09-07T10:59:15;37.30;77.20
34698;DHT22;61391;50.922;6.928;2023-09-07T11:01:41;37.40;76.30
34698;DHT22;61391;50.922;6.928;2023-09-07T11:04:06;36.40;78.80
34698;DHT22;61391;50.922;6.928;2023-09-07T11:06:33;36.00;78.30
34698;DHT22;61391;50.922;6.928;2023-09-07T11:09:05;34.80;79.90
34698;DHT22;61391;50.922;6.928;2023-09-07T11:11:34;33.70;82.50
34698;DHT22;61391;50.922;6.928;2023-09-07T11:13:59;31.40;86.70
34698;DHT22;61391;50.922;6.928;2023-09-07T11:16:25;30.00;90.80
34698;DHT22;61391;50.922;6.928;2023-09-07T11:18:52;29.60;92.30
34698;DHT22;61391;50.922;6.928;2023-09-07T11:21:19;29.30;93.60
34698;DHT22;61391;50.922;6.928;2023-09-07T11:23:45;29.20;93.90
34698;DHT22;61391;50.922;6.928;2023-09-07T11:26:11;28.80;95.30
34698;DHT22;61391;50.922;6.928;2023-09-07T11:28:37;28.70;95.90
34698;DHT22;61391;50.922;6.928;2023-09-07T11:31:03;28.80;96.30
34698;DHT22;61391;50.922;6.928;2023-09-07T11:33:31;28.50;97.20
34698;DHT22;61391;50.922;6.928;2023-09-07T11:35:57;28.70;97.50
34698;DHT22;61391;50.922;6.928;2023-09-07T11:38:23;28.70;97.50
34698;DHT22;61391;50.922;6.928;2023-09-07T11:40:48;28.80;97.50
34698;DHT22;61391;50.922;6.928;2023-09-07T11:43:14;28.70;97.70
34698;DHT22;61391;50.922;6.928;2023-09-07T11:45:41;28.60;98.40
34698;DHT22;61391;50.922;6.928;2023-09-07T11:48:07;28.60;98.10
34698;DHT22;61391;50.922;6.928;2023-09-07T11:50:34;28.70;98.90
34698;DHT22;61391;50.922;6.928;2023-09-07T11:53:00;28.60;99.60
34698;DHT22;61391;50.922;6.928;2023-09-07T11:55:25;28.50;99.40
34698;DHT22;61391;50.922;6.928;2023-09-07T11:57:51;28.30;99.90
34698;DHT22;61391;50.922;6.928;2023-09-07T12:00:17;28.30;99.90
34698;DHT22;61391;50.922;6.928;2023-09-07T12:02:42;28.20;99.90
34698;DHT22;61391;50.922;6.928;2023-09-07T12:05:08;28.40;99.90
34698;DHT22;61391;50.922;6.928;2023-09-07T12:07:38;28.70;99.90
34698;DHT22;61391;50.922;6.928;2023-09-07T12:10:03;28.80;99.90
34698;DHT22;61391;50.922;6.928;2023-09-07T12:12:29;28.70;99.90
34698;DHT22;61391;50.922;6.928;2023-09-07T12:14:54;28.70;99.90
34698;DHT22;61391;50.922;6.928;2023-09-07T12:17:21;28.50;99.90
34698;DHT22;61391;50.922;6.928;2023-09-07T12:19:47;28.70;99.90
34698;DHT22;61391;50.922;6.928;2023-09-07T12:22:13;29.00;99.90
34698;DHT22;61391;50.922;6.928;2023-09-07T12:24:38;29.30;99.50
34698;DHT22;61391;50.922;6.928;2023-09-07T12:27:04;29.10;99.80
34698;DHT22;61391;50.922;6.928;2023-09-07T12:29:29;28.90;99.20
34698;DHT22;61391;50.922;6.928;2023-09-07T12:31:55;29.10;99.60
34698;DHT22;61391;50.922;6.928;2023-09-07T12:34:21;29.20;99.90
34698;DHT22;61391;50.922;6.928;2023-09-07T12:36:46;29.40;99.80
34698;DHT22;61391;50.922;6.928;2023-09-07T12:39:12;29.00;98.90
34698;DHT22;61391;50.922;6.928;2023-09-07T12:41:38;28.80;99.90
34698;DHT22;61391;50.922;6.928;2023-09-07T12:44:04;29.00;99.90
34698;DHT22;61391;50.922;6.928;2023-09-07T12:46:30;29.00;98.70
34698;DHT22;61391;50.922;6.928;2023-09-07T12:48:55;29.10;97.80
34698;DHT22;61391;50.922;6.928;2023-09-07T12:51:21;29.00;97.90
34698;DHT22;61391;50.922;6.928;2023-09-07T12:53:46;29.20;98.00
34698;DHT22;61391;50.922;6.928;2023-09-07T12:56:12;29.10;98.10
34698;DHT22;61391;50.922;6.928;2023-09-07T12:58:38;29.30;98.10
34698;DHT22;61391;50.922;6.928;2023-09-07T13:01:04;29.40;97.50
34698;DHT22;61391;50.922;6.928;2023-09-07T13:03:29;29.40;97.70
34698;DHT22;61391;50.922;6.928;2023-09-07T13:05:55;29.40;97.80
34698;DHT22;61391;50.922;6.928;2023-09-07T13:08:20;29.40;98.30
34698;DHT22;61391;50.922;6.928;2023-09-07T13:10:46;29.70;98.10
34698;DHT22;61391;50.922;6.928;2023-09-07T13:13:11;29.80;98.50
34698;DHT22;61391;50.922;6.928;2023-09-07T13:15:37;29.80;98.70
34698;DHT22;61391;50.922;6.928;2023-09-07T13:18:02;29.90;98.70
34698;DHT22;61391;50.922;6.928;2023-09-07T13:20:28;29.60;98.30
34698;DHT22;61391;50.922;6.928;2023-09-07T13:22:54;29.50;98.50
34698;DHT22;61391;50.922;6.928;2023-09-07T13:25:19;29.70;98.60
34698;DHT22;61391;50.922;6.928;2023-09-07T13:27:45;29.80;98.30
34698;DHT22;61391;50.922;6.928;2023-09-07T13:30:10;29.80;97.10
34698;DHT22;61391;50.922;6.928;2023-09-07T13:32:37;29.80;96.70
34698;DHT22;61391;50.922;6.928;2023-09-07T13:35:03;29.70;96.30
34698;DHT22;61391;50.922;6.928;2023-09-07T13:37:29;29.50;96.70
34698;DHT22;61391;50.922;6.928;2023-09-07T13:39:54;29.30;98.00
34698;DHT22;61391;50.922;6.928;2023-09-07T13:42:20;29.30;98.00
34698;DHT22;61391;50.922;6.928;2023-09-07T13:44:45;29.40;97.00
34698;DHT22;61391;50.922;6.928;2023-09-07T13:47:12;29.60;96.70
34698;DHT22;61391;50.922;6.928;2023-09-07T13:49:38;29.60;95.30
34698;DHT22;61391;50.922;6.928;2023-09-07T13:52:03;29.80;95.10
34698;DHT22;61391;50.922;6.928;2023-09-07T13:54:29;30.10;93.50
34698;DHT22;61391;50.922;6.928;2023-09-07T13:56:54;29.80;93.00
34698;DHT22;61391;50.922;6.928;2023-09-07T13:59:20;29.70;92.80
34698;DHT22;61391;50.922;6.928;2023-09-07T14:01:45;29.60;92.30
34698;DHT22;61391;50.922;6.928;2023-09-07T14:04:11;29.80;91.80
34698;DHT22;61391;50.922;6.928;2023-09-07T14:06:36;29.80;91.30
34698;DHT22;61391;50.922;6.928;2023-09-07T14:09:02;29.70;91.10
34698;DHT22;61391;50.922;6.928;2023-09-07T14:11:27;30.00;90.70
34698;DHT22;61391;50.922;6.928;2023-09-07T14:13:53;30.10;90.40
34698;DHT22;61391;50.922;6.928;2023-09-07T14:16:20;29.90;90.60
34698;DHT22;61391;50.922;6.928;2023-09-07T14:18:46;29.80;90.00
34698;DHT22;61391;50.922;6.928;2023-09-07T14:21:13;29.70;90.60
34698;DHT22;61391;50.922;6.928;2023-09-07T14:23:38;29.60;90.00
34698;DHT22;61391;50.922;6.928;2023-09-07T14:26:05;29.80;90.00
34698;DHT22;61391;50.922;6.928;2023-09-07T14:28:31;29.80;89.00
34698;DHT22;61391;50.922;6.928;2023-09-07T14:30:56;29.80;87.60
34698;DHT22;61391;50.922;6.928;2023-09-07T14:33:24;29.80;85.50
34698;DHT22;61391;50.922;6.928;2023-09-07T14:35:51;29.80;86.60
34698;DHT22;61391;50.922;6.928;2023-09-07T14:38:19;29.80;86.20
34698;DHT22;61391;50.922;6.928;2023-09-07T14:40:45;30.00;86.60
34698;DHT22;61391;50.922;6.928;2023-09-07T14:43:11;30.10;86.40
34698;DHT22;61391;50.922;6.928;2023-09-07T14:45:36;30.10;85.50
34698;DHT22;61391;50.922;6.928;2023-09-07T14:48:02;30.20;84.60
34698;DHT22;61391;50.922;6.928;2023-09-07T14:50:27;29.90;83.90
34698;DHT22;61391;50.922;6.928;2023-09-07T14:52:53;30.00;84.30
34698;DHT22;61391;50.922;6.928;2023-09-07T14:55:18;30.00;85.00
34698;DHT22;61391;50.922;6.928;2023-09-07T14:57:44;30.00;83.50
34698;DHT22;61391;50.922;6.928;2023-09-07T15:00:10;30.00;84.00
34698;DHT22;61391;50.922;6.928;2023-09-07T15:02:36;30.10;84.60
34698;DHT22;61391;50.922;6.928;2023-09-07T15:05:02;30.10;83.60
34698;DHT22;61391;50.922;6.928;2023-09-07T15:07:27;30.10;83.20
34698;DHT22;61391;50.922;6.928;2023-09-07T15:09:53;29.90;83.60
34698;DHT22;61391;50.922;6.928;2023-09-07T15:12:19;29.90;83.80
34698;DHT22;61391;50.922;6.928;2023-09-07T15:14:44;29.90;83.40
34698;DHT22;61391;50.922;6.928;2023-09-07T15:17:10;30.00;83.00
34698;DHT22;61391;50.922;6.928;2023-09-07T15:19:37;29.80;83.60
34698;DHT22;61391;50.922;6.928;2023-09-07T15:22:03;29.90;83.80
34698;DHT22;61391;50.922;6.928;2023-09-07T15:24:28;29.80;83.30
34698;DHT22;61391;50.922;6.928;2023-09-07T15:26:54;29.90;83.90
34698;DHT22;61391;50.922;6.928;2023-09-07T15:29:19;29.90;83.00
34698;DHT22;61391;50.922;6.928;2023-09-07T15:31:45;30.00;83.60
34698;DHT22;61391;50.922;6.928;2023-09-07T15:34:11;30.00;82.70
34698;DHT22;61391;50.922;6.928;2023-09-07T15:36:36;30.00;82.90
34698;DHT22;61391;50.922;6.928;2023-09-07T15:39:02;29.90;82.80
34698;DHT22;61391;50.922;6.928;2023-09-07T15:41:29;29.90;83.10
34698;DHT22;61391;50.922;6.928;2023-09-07T15:43:55;29.90;83.30
34698;DHT22;61391;50.922;6.928;2023-09-07T15:46:21;29.90;82.70
34698;DHT22;61391;50.922;6.928;2023-09-07T15:48:46;29.90;81.90
34698;DHT22;61391;50.922;6.928;2023-09-07T15:51:12;29.90;81.50
34698;DHT22;61391;50.922;6.928;2023-09-07T15:53:37;29.80;81.70
34698;DHT22;61391;50.922;6.928;2023-09-07T15:56:03;29.70;81.80
34698;DHT22;61391;50.922;6.928;2023-09-07T15:58:29;29.70;80.40
34698;DHT22;61391;50.922;6.928;2023-09-07T16:00:54;29.80;80.40
34698;DHT22;61391;50.922;6.928;2023-09-07T16:03:20;29.70;80.20
34698;DHT22;61391;50.922;6.928;2023-09-07T16:05:46;29.70;79.90
34698;DHT22;61391;50.922;6.928;2023-09-07T16:08:11;29.70;80.00
34698;DHT22;61391;50.922;6.928;2023-09-07T16:10:37;29.60;80.80
34698;DHT22;61391;50.922;6.928;2023-09-07T16:13:03;29.70;81.40